Time;durP1;ratioP1;P1;durP2;ratioP2;P2;SDS_P1;SDS_P2;PMS_P1;PMS_P2;Temp;Humidity;BMP_temperature;BMP_pressure;BME280_temperature;BME280_humidity;BME280_pressure;Samples;Min_cycle;Max_cycle;Signal;HPM_P1;HPM_P2
2022/08/31 00:05:53;;;;;;;18.55;4.70;;;;;;;13.85;100.00;99309.36;2211260;79;20999;-59
2022/08/31 00:08:53;;;;;;;14.53;4.00;;;;;;;13.90;100.00;99311.69;2219755;80;20996;-59
2022/08/31 00:11:54;;;;;;;16.95;4.30;;;;;;;14.05;100.00;99308.50;2222366;79;21051;-58
2022/08/31 00:14:55;;;;;;;36.00;10.15;;;;;;;14.18;100.00;99315.95;2220765;80;21525;-58
2022/08/31 00:17:55;;;;;;;35.48;11.85;;;;;;;14.26;100.00;99315.89;2219019;79;21024;-58
2022/08/31 00:20:56;;;;;;;45.55;12.88;;;;;;;14.26;100.00;99310.62;2222088;79;20976;-58
2022/08/31 00:23:56;;;;;;;28.73;7.95;;;;;;;14.36;100.00;99311.67;2219974;80;20995;-58
2022/08/31 00:26:57;;;;;;;25.92;5.97;;;;;;;14.23;100.00;99308.20;2222398;79;21000;-58
2022/08/31 00:29:57;;;;;;;18.55;4.17;;;;;;;14.28;100.00;99307.38;2219994;79;21027;-58
2022/08/31 00:32:58;;;;;;;11.68;3.55;;;;;;;14.40;100.00;99306.55;2223785;79;21016;-59
2022/08/31 00:35:58;;;;;;;9.75;3.27;;;;;;;14.35;100.00;99308.20;2221783;79;21150;-58
2022/08/31 00:38:59;;;;;;;16.00;3.62;;;;;;;14.51;100.00;99307.98;2222546;79;21506;-58
2022/08/31 00:41:59;;;;;;;14.78;3.60;;;;;;;14.58;100.00;99302.26;2220242;79;21609;-59
2022/08/31 00:45:00;;;;;;;13.90;4.00;;;;;;;14.76;100.00;99304.95;2221050;79;21039;-59
2022/08/31 00:48:00;;;;;;;23.47;6.75;;;;;;;14.77;100.00;99305.34;2219679;80;21007;-58
2022/08/31 00:51:01;;;;;;;33.13;11.18;;;;;;;14.60;100.00;99305.17;2214883;80;21091;-58
2022/08/31 00:54:01;;;;;;;19.42;5.55;;;;;;;14.51;100.00;99313.71;2220990;79;21035;-58
2022/08/31 00:57:02;;;;;;;15.60;4.30;;;;;;;14.48;100.00;99306.01;2223553;79;21499;-58
2022/08/31 01:00:02;;;;;;;66.55;24.27;;;;;;;14.41;100.00;99305.61;2221384;80;21583;-57
2022/08/31 01:03:03;;;;;;;45.78;15.43;;;;;;;14.42;100.00;99300.68;2217774;79;21056;-59
2022/08/31 01:06:03;;;;;;;52.40;19.50;;;;;;;14.43;100.00;99298.91;2221329;79;21103;-58
2022/08/31 01:09:04;;;;;;;12.10;3.33;;;;;;;14.52;100.00;99307.03;2220639;79;21028;-58
2022/08/31 01:12:04;;;;;;;11.97;2.67;;;;;;;14.50;100.00;99308.09;2221033;79;21020;-58
2022/08/31 01:15:05;;;;;;;8.60;2.77;;;;;;;14.18;100.00;99306.71;2207666;80;21554;-58
2022/08/31 01:18:06;;;;;;;10.93;3.00;;;;;;;14.15;100.00;99311.34;2216615;79;20976;-58
2022/08/31 01:21:06;;;;;;;14.20;2.50;;;;;;;14.03;100.00;99309.06;2222272;79;21011;-57
2022/08/31 01:24:06;;;;;;;10.03;2.60;;;;;;;13.94;100.00;99303.11;2221903;79;21052;-57
2022/08/31 01:27:07;;;;;;;9.63;2.80;;;;;;;13.92;100.00;99308.48;2221397;79;21059;-57
2022/08/31 01:30:09;;;;;;;9.83;3.10;;;;;;;13.98;100.00;99301.95;2218947;80;20949;-58
2022/08/31 01:33:10;;;;;;;11.25;2.87;;;;;;;14.03;100.00;99299.34;2222058;79;21496;-57
2022/08/31 01:36:10;;;;;;;11.20;2.60;;;;;;;14.08;100.00;99304.79;2219056;80;21054;-55
2022/08/31 01:39:11;;;;;;;9.45;2.50;;;;;;;14.11;100.00;99301.97;2221847;79;21024;-58
2022/08/31 01:42:12;;;;;;;10.45;2.77;;;;;;;14.10;100.00;99299.78;2219584;79;21034;-57
2022/08/31 01:45:12;;;;;;;9.50;2.87;;;;;;;14.23;100.00;99298.48;2223384;79;20984;-57
2022/08/31 01:48:13;;;;;;;10.23;2.90;;;;;;;14.20;100.00;99298.20;2220958;79;21027;-56
2022/08/31 01:51:13;;;;;;;10.72;3.10;;;;;;;14.25;100.00;99299.23;2225136;79;21502;-58
2022/08/31 01:54:14;;;;;;;15.23;3.17;;;;;;;14.22;100.00;99295.46;2221821;80;20989;-60
2022/08/31 01:57:14;;;;;;;12.58;3.20;;;;;;;14.20;100.00;99293.41;2221515;79;21048;-60
2022/08/31 02:00:15;;;;;;;11.80;3.02;;;;;;;14.33;100.00;99299.52;2220930;79;21000;-58
2022/08/31 02:03:15;;;;;;;12.00;3.02;;;;;;;14.36;100.00;99301.12;2217715;79;21108;-58
2022/08/31 02:06:16;;;;;;;11.38;3.10;;;;;;;14.40;100.00;99306.55;2220201;80;21020;-58
2022/08/31 02:09:16;;;;;;;14.30;3.22;;;;;;;14.41;100.00;99301.66;2220034;79;21519;-59
2022/08/31 02:12:17;;;;;;;17.07;4.58;;;;;;;14.44;100.00;99296.61;2220946;79;21107;-58
2022/08/31 02:15:17;;;;;;;21.42;6.05;;;;;;;14.44;100.00;99287.38;2220325;80;21177;-59
2022/08/31 02:18:18;;;;;;;49.88;16.50;;;;;;;14.50;100.00;99302.32;2224052;79;21057;-59
2022/08/31 02:21:18;;;;;;;36.05;9.90;;;;;;;14.42;100.00;99291.45;2209173;80;21069;-59
2022/08/31 02:24:18;;;;;;;24.55;6.12;;;;;;;14.34;100.00;99295.95;2219790;80;20997;-59
2022/08/31 02:27:19;;;;;;;23.70;5.65;;;;;;;14.36;100.00;99299.31;2222979;79;21110;-59
2022/08/31 02:30:19;;;;;;;23.20;5.12;;;;;;;14.40;100.00;99296.00;2222751;79;21529;-58
2022/08/31 02:33:20;;;;;;;22.62;5.42;;;;;;;14.38;100.00;99296.59;2223825;79;21090;-58
2022/08/31 02:36:20;;;;;;;18.05;4.78;;;;;;;14.28;100.00;99291.55;2218283;80;21153;-59
2022/08/31 02:39:21;;;;;;;17.73;4.00;;;;;;;14.30;100.00;99287.03;2221340;79;21198;-58
2022/08/31 02:42:21;;;;;;;15.45;4.10;;;;;;;14.36;100.00;99282.16;2218078;80;21105;-58
2022/08/31 02:45:22;;;;;;;17.95;3.67;;;;;;;14.37;100.00;99280.38;2214352;79;21023;-58
2022/08/31 02:48:23;;;;;;;14.83;3.95;;;;;;;14.36;100.00;99283.96;2219950;79;21506;-58
2022/08/31 02:51:23;;;;;;;17.55;3.87;;;;;;;14.45;100.00;99285.98;2220431;79;21011;-58
2022/08/31 02:54:24;;;;;;;16.70;4.15;;;;;;;14.50;100.00;99285.65;2223739;79;21119;-58
2022/08/31 02:57:24;;;;;;;22.20;4.28;;;;;;;14.54;100.00;99289.28;2220295;79;21572;-58
2022/08/31 03:00:24;;;;;;;22.77;5.05;;;;;;;14.52;100.00;99284.59;2221509;79;21143;-59
2022/08/31 03:03:26;;;;;;;23.38;5.10;;;;;;;14.54;100.00;99289.28;2219950;79;21039;-58
2022/08/31 03:06:28;;;;;;;23.40;5.03;;;;;;;14.59;100.00;99282.84;2223355;79;21004;-58
2022/08/31 03:09:31;;;;;;;15.43;3.90;;;;;;;14.51;100.00;99284.67;2218059;79;21094;-57
2022/08/31 03:12:33;;;;;;;13.48;3.67;;;;;;;14.57;100.00;99286.91;2219382;80;21494;-57
2022/08/31 03:15:34;;;;;;;16.80;3.80;;;;;;;14.59;100.00;99288.12;2221730;79;21026;-58
2022/08/31 03:18:35;;;;;;;13.47;3.23;;;;;;;14.67;100.00;99292.42;2224172;79;21078;-57
2022/08/31 03:21:37;;;;;;;16.53;3.73;;;;;;;14.73;100.00;99294.63;2222584;79;20983;-57
2022/08/31 03:24:38;;;;;;;12.35;3.22;;;;;;;14.70;100.00;99301.44;2220588;79;21126;-57
2022/08/31 03:27:40;;;;;;;13.93;3.40;;;;;;;14.79;100.00;99302.09;2223040;79;21641;-57
2022/08/31 03:30:41;;;;;;;16.37;3.43;;;;;;;14.87;100.00;99298.93;2220848;79;21001;-57
2022/08/31 03:33:43;;;;;;;12.05;3.17;;;;;;;14.95;100.00;99301.02;2220187;80;21589;-57
2022/08/31 03:36:45;;;;;;;11.87;3.00;;;;;;;15.04;100.00;99309.13;2217415;80;20999;-57
2022/08/31 03:39:46;;;;;;;11.55;3.35;;;;;;;15.07;100.00;99305.42;2216186;79;21082;-57
2022/08/31 03:42:48;;;;;;;10.87;3.00;;;;;;;15.06;100.00;99306.38;2224037;79;21000;-57
2022/08/31 03:45:50;;;;;;;12.82;3.25;;;;;;;15.07;100.00;99304.11;2222278;79;21592;-57
2022/08/31 03:48:53;;;;;;;13.08;3.33;;;;;;;15.13;100.00;99307.61;2221754;79;21011;-57
2022/08/31 03:51:54;;;;;;;;;;;;;;;15.16;100.00;99302.59;2223678;80;21486;-57
2022/08/31 03:54:56;;;;;;;11.35;3.00;;;;;;;15.22;100.00;99306.94;2221354;80;20108;-57
2022/08/31 03:57:57;;;;;;;12.07;3.00;;;;;;;15.28;100.00;99307.45;2223301;79;21000;-56
2022/08/31 04:00:59;;;;;;;9.37;3.10;;;;;;;15.24;100.00;99303.72;2219744;80;20995;-58
2022/08/31 04:04:00;;;;;;;13.17;3.27;;;;;;;15.20;100.00;99305.35;2225545;79;21538;-59
2022/08/31 04:07:02;;;;;;;10.95;2.90;;;;;;;15.14;100.00;99305.34;2222492;79;21027;-59
2022/08/31 04:10:04;;;;;;;13.20;3.25;;;;;;;15.24;100.00;99307.69;2221331;79;21518;-58
2022/08/31 04:13:05;;;;;;;13.23;3.50;;;;;;;15.21;100.00;99305.27;2220833;79;20956;-59
2022/08/31 04:16:08;;;;;;;17.20;4.13;;;;;;;15.34;100.00;99307.00;2223924;79;21004;-58
2022/08/31 04:19:10;;;;;;;12.30;3.67;;;;;;;15.39;100.00;99306.20;2220686;79;21051;-58
2022/08/31 04:22:11;;;;;;;13.53;3.40;;;;;;;15.43;100.00;99311.62;2215018;80;21081;-58
2022/08/31 04:25:13;;;;;;;16.55;3.67;;;;;;;15.51;100.00;99322.45;2221360;80;21004;-57
2022/08/31 04:28:15;;;;;;;13.90;3.50;;;;;;;15.64;100.00;99318.92;2213423;80;21783;-59
2022/08/31 04:31:17;;;;;;;16.40;3.42;;;;;;;15.65;100.00;99317.97;2224710;79;21043;-60
2022/08/31 04:34:18;;;;;;;17.07;3.50;;;;;;;15.68;100.00;99317.25;2221952;79;21058;-58
2022/08/31 04:37:20;;;;;;;11.63;3.50;;;;;;;15.75;100.00;99327.73;2222591;79;21031;-58
2022/08/31 04:40:21;;;;;;;22.10;6.40;;;;;;;15.76;100.00;99323.31;2219870;80;21062;-58
2022/08/31 04:43:24;;;;;;;13.50;3.73;;;;;;;15.75;100.00;99322.45;2203741;80;20987;-58
2022/08/31 04:46:25;;;;;;;;;;;;;;;15.81;100.00;99330.44;2219732;80;21019;-59
2022/08/31 04:49:26;;;;;;;15.78;3.98;;;;;;;15.82;100.00;99324.69;2217976;80;20107;-59
2022/08/31 04:52:28;;;;;;;11.57;3.07;;;;;;;15.87;100.00;99324.67;2218229;79;21699;-58
2022/08/31 04:55:29;;;;;;;15.17;3.60;;;;;;;15.89;100.00;99328.06;2216463;79;21300;-59
2022/08/31 04:58:31;;;;;;;19.10;4.60;;;;;;;15.92;100.00;99336.26;2218079;79;21201;-59
2022/08/31 05:01:32;;;;;;;17.45;4.05;;;;;;;15.79;100.00;99335.47;2212306;79;21078;-59
2022/08/31 05:04:34;;;;;;;13.10;3.42;;;;;;;15.87;100.00;99331.29;2219758;79;20995;-58
2022/08/31 05:07:36;;;;;;;14.87;3.40;;;;;;;15.89;100.00;99328.06;2221137;79;21540;-58
2022/08/31 05:10:40;;;;;;;13.95;3.05;;;;;;;16.13;100.00;99329.80;2220437;79;21012;-57
2022/08/31 05:13:41;;;;;;;11.73;3.20;;;;;;;16.10;100.00;99331.36;2217252;79;21063;-58
2022/08/31 05:16:43;;;;;;;14.03;3.22;;;;;;;16.12;100.00;99333.43;2222251;79;20985;-58
2022/08/31 05:19:44;;;;;;;13.70;3.27;;;;;;;16.15;100.00;99335.84;2223078;79;21054;-57
2022/08/31 05:22:46;;;;;;;12.97;3.20;;;;;;;16.06;100.00;99343.13;2223812;79;20988;-58
2022/08/31 05:25:48;;;;;;;18.20;3.35;;;;;;;16.06;100.00;99343.13;2222957;79;21098;-57
2022/08/31 05:28:49;;;;;;;11.13;3.20;;;;;;;16.06;100.00;99350.61;2222687;79;21506;-58
2022/08/31 05:31:50;;;;;;;13.23;3.23;;;;;;;16.34;100.00;99348.99;2222103;79;20999;-57
2022/08/31 05:34:52;;;;;;;15.13;3.85;;;;;;;16.43;100.00;99346.95;2222206;79;21732;-57
2022/08/31 05:37:54;;;;;;;13.68;3.08;;;;;;;16.50;100.00;99349.97;2222229;79;20992;-58
2022/08/31 05:40:57;;;;;;;10.93;2.97;;;;;;;16.54;100.00;99348.78;2222481;79;21027;-57
2022/08/31 05:43:59;;;;;;;9.80;2.80;;;;;;;16.66;100.00;99349.13;2221622;79;21719;-58
2022/08/31 05:47:00;;;;;;;13.27;3.17;;;;;;;16.73;100.00;99350.34;2224170;79;21060;-56
2022/08/31 05:50:02;;;;;;;12.53;2.97;;;;;;;16.80;100.00;99348.06;2217755;80;21062;-57
2022/08/31 05:53:03;;;;;;;18.13;3.73;;;;;;;16.85;100.00;99353.85;2223968;79;21720;-57
2022/08/31 05:56:05;;;;;;;12.03;3.08;;;;;;;16.80;100.00;99352.03;2224215;79;21027;-57
2022/08/31 05:59:07;;;;;;;10.53;2.90;;;;;;;16.82;100.00;99361.19;2215328;79;21046;-57
2022/08/31 06:02:09;;;;;;;8.85;2.52;;;;;;;16.86;100.00;99363.95;2221396;79;21023;-57
2022/08/31 06:05:11;;;;;;;9.70;2.72;;;;;;;16.93;100.00;99363.87;2219427;79;20973;-57
2022/08/31 06:08:12;;;;;;;11.30;2.92;;;;;;;16.87;100.00;99368.30;2222431;79;21032;-57
2022/08/31 06:11:17;;;;;;;14.38;3.05;;;;;;;16.92;100.00;99368.80;2221724;79;21039;-59
2022/08/31 06:14:17;;;;;;;12.00;2.80;;;;;;;17.03;100.00;99374.59;2213741;79;21065;-58
2022/08/31 06:17:19;;;;;;;11.60;2.70;;;;;;;17.22;100.00;99382.73;2209806;80;21014;-59
2022/08/31 06:20:20;;;;;;;13.68;2.80;;;;;;;17.45;100.00;99378.23;2209663;80;21038;-58
2022/08/31 06:23:21;;;;;;;10.35;2.67;;;;;;;17.54;100.00;99376.67;2218695;80;21019;-59
2022/08/31 06:26:23;;;;;;;9.73;2.63;;;;;;;17.55;100.00;99380.98;2219724;80;21463;-59
2022/08/31 06:29:24;;;;;;;11.33;2.53;;;;;;;17.57;100.00;99381.73;2221806;79;21205;-58
2022/08/31 06:32:26;;;;;;;12.23;2.98;;;;;;;17.76;100.00;99375.75;2220290;79;21642;-57
2022/08/31 06:35:27;;;;;;;8.07;2.30;;;;;;;17.80;100.00;99381.63;2226952;79;20985;-59
2022/08/31 06:38:29;;;;;;;11.97;2.87;;;;;;;17.78;100.00;99381.76;2211661;80;21158;-59
2022/08/31 06:41:31;;;;;;;9.08;2.40;;;;;;;17.93;100.00;99384.14;2224968;79;20992;-58
2022/08/31 06:44:32;;;;;;;12.65;2.60;;;;;;;18.02;100.00;99386.05;2220592;79;21004;-58
2022/08/31 06:47:34;;;;;;;12.63;2.47;;;;;;;18.02;100.00;99391.86;2219696;80;21081;-58
2022/08/31 06:50:37;;;;;;;10.93;2.37;;;;;;;18.05;100.00;99390.27;2221592;80;21030;-58
2022/08/31 06:53:41;;;;;;;9.08;2.30;;;;;;;18.18;100.00;99388.27;2212127;79;20964;-58
2022/08/31 06:56:42;;;;;;;11.88;2.40;;;;;;;18.39;100.00;99398.05;2213037;80;21506;-59
2022/08/31 06:59:43;;;;;;;7.92;2.10;;;;;;;18.74;100.00;99396.38;2222445;79;20995;-59
2022/08/31 07:02:45;;;;;;;9.68;2.00;;;;;;;19.27;100.00;99392.70;2212482;80;21011;-59
2022/08/31 07:05:46;;;;;;;7.58;1.82;;;;;;;19.48;100.00;99393.95;2226567;79;21019;-59
2022/08/31 07:08:50;;;;;;;6.05;1.95;;;;;;;19.77;100.00;99396.28;2211585;80;21004;-60
2022/08/31 07:11:52;;;;;;;6.85;2.08;;;;;;;19.64;100.00;99397.88;2207869;79;21016;-59
2022/08/31 07:14:54;;;;;;;11.90;2.02;;;;;;;19.53;100.00;99396.19;2225746;79;21004;-58
2022/08/31 07:17:55;;;;;;;10.32;1.90;;;;;;;19.73;100.00;99400.55;2221849;79;20991;-58
2022/08/31 07:20:57;;;;;;;8.90;2.12;;;;;;;19.76;100.00;99391.45;2225157;79;21735;-58
2022/08/31 07:23:58;;;;;;;6.60;1.55;;;;;;;19.60;100.00;99405.81;2247605;78;21064;-58
2022/08/31 07:27:01;;;;;;;9.20;1.75;;;;;;;19.65;100.00;99399.09;2244772;78;20996;-59
2022/08/31 07:30:02;;;;;;;3.22;1.35;;;;;;;19.82;100.00;99407.39;2247989;78;21503;-56
2022/08/31 07:33:05;;;;;;;9.63;1.92;;;;;;;19.97;100.00;99406.02;2242601;78;20961;-58
2022/08/31 07:36:07;;;;;;;6.83;1.60;;;;;;;20.53;100.00;99404.42;2257055;78;21032;-58
2022/08/31 07:42:12;;;;;;;4.17;1.30;;;;;;;20.94;100.00;99405.01;2199212;79;21020;-57
2022/08/31 07:45:20;;;;;;;7.40;1.40;;;;;;;20.91;100.00;99409.30;2224905;79;21572;-57
2022/08/31 07:48:17;;;;;;;5.00;1.40;;;;;;;20.94;100.00;99414.34;2213937;79;21494;-57
2022/08/31 07:51:22;;;;;;;8.25;1.57;;;;;;;21.11;100.00;99408.73;2218757;80;21030;-56
2022/08/31 07:54:22;;;;;;;7.47;1.70;;;;;;;21.33;100.00;99412.00;2206907;80;20996;-57
2022/08/31 07:57:28;;;;;;;6.22;1.52;;;;;;;22.01;100.00;99413.91;2222631;80;21003;-58
2022/08/31 08:00:27;;;;;;;4.95;1.52;;;;;;;22.36;100.00;99413.58;2212185;79;21067;-57
2022/08/31 08:03:29;;;;;;;5.40;1.45;;;;;;;22.41;100.00;99411.27;2222432;79;21074;-57
2022/08/31 08:06:30;;;;;;;7.42;1.55;;;;;;;22.48;100.00;99413.66;2218802;79;21058;-57
2022/08/31 08:09:32;;;;;;;6.10;1.45;;;;;;;22.47;100.00;99415.50;2224867;79;20964;-57
2022/08/31 08:12:35;;;;;;;9.90;1.85;;;;;;;22.52;100.00;99412.86;2223834;79;21470;-59
2022/08/31 08:15:37;;;;;;;4.75;1.32;;;;;;;22.49;100.00;99412.16;2227615;79;21534;-58
2022/08/31 08:18:38;;;;;;;5.08;1.40;;;;;;;22.76;100.00;99418.36;2226937;79;20991;-58
2022/08/31 08:21:42;;;;;;;8.80;1.70;;;;;;;22.94;100.00;99416.97;2223144;79;21517;-58
2022/08/31 08:24:46;;;;;;;5.80;1.37;;;;;;;22.84;100.00;99420.23;2221974;79;21030;-58
2022/08/31 08:27:47;;;;;;;4.45;1.42;;;;;;;22.90;100.00;99423.63;2227965;79;21127;-58
2022/08/31 08:30:53;;;;;;;9.13;1.50;;;;;;;23.40;100.00;99420.69;2228318;79;21518;-59
2022/08/31 08:33:53;;;;;;;5.85;1.57;;;;;;;23.57;100.00;99430.13;2212533;79;21059;-60
2022/08/31 08:36:55;;;;;;;3.75;1.00;;;;;;;23.63;100.00;99422.30;2226052;79;21015;-58
2022/08/31 08:39:58;;;;;;;8.18;1.52;;;;;;;23.23;100.00;99425.64;2225824;80;21594;-58
2022/08/31 08:43:01;;;;;;;7.05;1.70;;;;;;;23.31;100.00;99427.03;2226583;79;21050;-59
2022/08/31 08:46:03;;;;;;;5.62;1.55;;;;;;;23.72;100.00;99428.50;2225700;79;21155;-59
2022/08/31 08:49:04;;;;;;;6.70;1.50;;;;;;;23.25;100.00;99425.00;2225595;79;21128;-59
2022/08/31 08:52:05;;;;;;;5.22;1.47;;;;;;;22.86;100.00;99427.61;2227543;79;21023;-58
2022/08/31 08:55:07;;;;;;;5.53;1.27;;;;;;;22.48;100.00;99429.21;2227514;79;20956;-60
2022/08/31 08:58:09;;;;;;;;;;;;;;;21.92;100.00;99423.20;2230998;79;21054;-59
2022/08/31 09:01:12;;;;;;;8.55;1.47;;;;;;;21.56;100.00;99420.97;2227256;80;20096;-59
2022/08/31 09:04:15;;;;;;;5.05;1.02;;;;;;;;;;2227966;79;20972;-59
2022/08/31 09:07:21;;;;;;;7.08;1.45;;;;;;;21.17;100.00;99425.15;2254291;78;21027;-58
2022/08/31 09:10:20;;;;;;;5.15;1.20;;;;;;;21.46;100.00;99423.66;2228060;79;20988;-59
2022/08/31 09:13:22;;;;;;;4.25;1.10;;;;;;;22.00;100.00;99421.09;2253075;78;21080;-59
2022/08/31 09:16:24;;;;;;;5.25;1.35;;;;;;;22.37;100.00;99420.58;2254361;78;21069;-59
2022/08/31 09:19:26;;;;;;;5.00;1.55;;;;;;;22.61;100.00;99416.77;2249682;78;21104;-57
2022/08/31 09:22:27;;;;;;;5.90;1.60;;;;;;;22.95;100.00;99417.80;2253310;78;21099;-57
2022/08/31 09:25:31;;;;;;;2.62;0.82;;;;;;;22.88;100.00;99412.23;2254017;78;21040;-57
2022/08/31 09:28:33;;;;;;;8.93;1.62;;;;;;;23.07;100.00;99416.50;2217670;79;21074;-57
2022/08/31 09:31:36;;;;;;;6.33;1.20;;;;;;;22.93;100.00;99404.59;2211766;80;21043;-57
2022/08/31 09:34:37;;;;;;;5.45;1.50;;;;;;;22.66;100.00;99407.77;2228477;79;21027;-57
2022/08/31 09:37:45;;;;;;;5.65;1.42;;;;;;;22.78;100.00;99411.00;2212548;79;21554;-57
2022/08/31 09:40:42;;;;;;;5.75;1.40;;;;;;;22.89;100.00;99408.58;2211939;79;21007;-57
2022/08/31 09:43:44;;;;;;;6.10;1.40;;;;;;;23.00;92.06;99408.78;2228836;79;20968;-58
2022/08/31 09:46:47;;;;;;;5.15;1.47;;;;;;;23.17;89.58;99403.05;2230210;79;21207;-57
2022/08/31 09:49:49;;;;;;;5.50;1.30;;;;;;;23.37;92.98;99403.62;2251763;78;21596;-57
2022/08/31 09:55:58;;;;;;;3.12;1.10;;;;;;;23.81;89.52;99404.73;2227065;79;20989;-58
2022/08/31 09:59:00;;;;;;;8.15;1.60;;;;;;;24.22;91.74;99390.55;2232061;78;21047;-57
2022/08/31 10:02:01;;;;;;;4.42;1.20;;;;;;;24.87;96.26;99392.85;2227704;78;21545;-58
2022/08/31 10:05:04;;;;;;;;;;;;;;;25.37;89.66;99389.47;2254930;78;21107;-57
2022/08/31 10:08:06;;;;;;;6.72;1.40;;;;;;;25.38;81.82;99393.84;2252178;78;20101;-58
2022/08/31 10:11:10;;;;;;;12.00;1.55;;;;;;;24.84;80.36;99385.13;2252877;78;21087;-60
2022/08/31 10:14:15;;;;;;;6.25;1.30;;;;;;;24.49;82.75;99378.63;2250882;78;21096;-59
2022/08/31 10:17:14;;;;;;;4.00;1.10;;;;;;;24.39;80.71;99383.34;2230618;78;20996;-58
2022/08/31 10:20:17;;;;;;;4.62;1.22;;;;;;;24.18;81.50;99384.71;2254867;78;20996;-58
2022/08/31 10:23:19;;;;;;;8.43;1.50;;;;;;;23.88;81.77;99378.17;2252874;78;21583;-58
2022/08/31 10:26:25;;;;;;;9.45;1.52;;;;;;;24.24;84.60;99374.30;2256222;78;21080;-57
2022/08/31 10:29:24;;;;;;;4.28;1.30;;;;;;;24.57;85.71;99379.14;2231801;79;21114;-58
2022/08/31 10:32:26;;;;;;;4.58;1.32;;;;;;;23.77;83.24;99391.34;2255313;78;21008;-58
2022/08/31 10:35:29;;;;;;;5.75;1.45;;;;;;;23.07;82.33;99390.27;2252758;78;21084;-60
2022/08/31 10:38:30;;;;;;;;;;;;;;;22.56;83.86;99385.66;2255115;78;21016;-60
2022/08/31 10:41:32;;;;;;;3.42;1.12;;;;;;;22.25;88.12;99384.72;2250427;78;20401;-59
2022/08/31 10:44:35;;;;;;;6.33;1.57;;;;;;;22.02;88.13;99381.70;2252714;78;21079;-60
2022/08/31 10:47:40;;;;;;;7.33;1.52;;;;;;;21.96;90.81;99379.66;2248482;78;21152;-59
2022/08/31 10:50:43;;;;;;;6.45;1.20;;;;;;;22.03;88.67;99382.56;2225755;78;20989;-59
2022/08/31 10:53:43;;;;;;;8.70;1.62;;;;;;;21.95;88.29;99381.49;2228885;78;20996;-59
2022/08/31 10:56:48;;;;;;;7.10;1.57;;;;;;;21.91;89.90;99380.59;2253729;78;21107;-59
2022/08/31 10:59:47;;;;;;;7.42;1.35;;;;;;;21.78;89.93;99375.67;2229134;79;21520;-57
2022/08/31 11:02:49;;;;;;;6.95;1.80;;;;;;;21.91;90.54;99373.44;2254754;78;21105;-58
2022/08/31 11:05:51;;;;;;;5.53;1.17;;;;;;;22.62;91.01;99374.32;2253439;78;21679;-57
2022/08/31 11:08:55;;;;;;;10.35;1.98;;;;;;;23.40;91.35;99363.14;2253927;78;21028;-57
2022/08/31 11:11:58;;;;;;;3.98;1.32;;;;;;;24.12;84.93;99356.39;2232229;78;21043;-58
2022/08/31 11:15:01;;;;;;;3.87;1.45;;;;;;;24.66;85.12;99345.95;2228980;79;21001;-58
2022/08/31 11:18:02;;;;;;;5.92;1.47;;;;;;;25.47;86.07;99342.27;2220267;79;21004;-57
2022/08/31 11:21:04;;;;;;;6.85;1.37;;;;;;;25.83;79.37;99338.99;2251917;78;21056;-57
2022/08/31 11:24:05;;;;;;;8.35;1.30;;;;;;;25.18;79.21;99330.33;2251527;78;21119;-58
2022/08/31 11:27:10;;;;;;;5.28;1.50;;;;;;;24.36;78.44;99343.48;2254324;78;21106;-57
2022/08/31 11:30:10;;;;;;;5.17;1.22;;;;;;;23.87;77.81;99339.82;2227268;78;21054;-57
2022/08/31 11:33:13;;;;;;;2.52;0.90;;;;;;;23.92;79.11;99339.83;2255789;78;21054;-58
2022/08/31 11:36:15;;;;;;;4.53;0.90;;;;;;;24.19;72.47;99332.80;2248622;79;20969;-57
2022/08/31 11:39:17;;;;;;;7.30;1.20;;;;;;;24.39;67.87;99325.23;2252437;78;21020;-57
2022/08/31 11:42:21;;;;;;;6.47;1.25;;;;;;;24.69;71.30;99328.69;2254478;78;21036;-57
2022/08/31 11:45:22;;;;;;;4.58;1.25;;;;;;;25.03;71.59;99327.04;2229900;78;21048;-58
2022/08/31 11:48:24;;;;;;;4.20;1.22;;;;;;;25.40;70.17;99325.53;2253725;78;21124;-57
2022/08/31 11:54:40;;;;;;;5.08;1.37;;;;;;;25.50;61.97;99329.34;2228424;79;21510;-56
2022/08/31 11:57:33;;;;;;;3.10;1.00;;;;;;;24.47;65.20;99340.96;2228331;78;21000;-57
2022/08/31 12:00:34;;;;;;;3.80;1.25;;;;;;;23.76;64.96;99337.95;2248480;78;21039;-57
2022/08/31 12:03:36;;;;;;;;;;;;;;;23.10;67.73;99335.95;2258560;78;21131;-57
2022/08/31 12:06:39;;;;;;;;;;;;;;;22.88;69.19;99332.01;2258709;78;20161;-56
2022/08/31 12:09:40;;;;;;;6.35;1.10;;;;;;;23.42;69.97;99330.37;2253446;78;20082;-57
2022/08/31 12:12:42;;;;;;;6.25;1.35;;;;;;;23.91;66.50;99328.80;2253216;79;21593;-58
2022/08/31 12:15:43;;;;;;;4.53;1.07;;;;;;;24.66;70.83;99323.67;2253480;78;21006;-58
2022/08/31 12:18:45;;;;;;;5.80;0.93;;;;;;;24.98;65.60;99317.84;2253432;78;21502;-58
2022/08/31 12:24:49;;;;;;;3.15;1.17;;;;;;;23.86;67.23;99328.80;2228377;78;20959;-58
2022/08/31 12:27:51;;;;;;;6.62;1.20;;;;;;;23.05;66.97;99323.55;2254274;78;21817;-59
2022/08/31 12:30:53;;;;;;;7.15;1.25;;;;;;;22.38;67.53;99324.22;2255498;78;21052;-58
2022/08/31 12:33:55;;;;;;;2.92;1.07;;;;;;;22.12;69.00;99329.53;2250704;78;21546;-60
2022/08/31 12:36:56;;;;;;;6.50;1.20;;;;;;;21.94;69.02;99324.23;2251512;78;21079;-59
2022/08/31 12:39:58;;;;;;;2.60;1.00;;;;;;;21.78;69.98;99328.44;2253626;78;21573;-59
2022/08/31 12:42:59;;;;;;;3.92;1.30;;;;;;;21.89;70.75;99323.34;2255148;78;21075;-59
2022/08/31 12:46:01;;;;;;;3.15;1.00;;;;;;;21.94;70.56;99320.23;2249992;78;21690;-59
2022/08/31 12:49:02;;;;;;;6.28;1.40;;;;;;;22.12;71.41;99313.50;2251952;78;21008;-59
2022/08/31 12:52:04;;;;;;;4.00;1.07;;;;;;;22.25;72.52;99311.25;2246116;78;21126;-58
2022/08/31 12:55:06;;;;;;;3.75;1.07;;;;;;;22.38;68.66;99313.53;2268578;77;21004;-58
2022/08/31 12:58:07;;;;;;;2.80;0.88;;;;;;;22.43;68.80;99305.89;2268487;77;20988;-58
2022/08/31 13:01:08;;;;;;;5.05;1.10;;;;;;;22.48;70.70;99304.94;2267805;78;20983;-58
2022/08/31 13:04:10;;;;;;;5.58;1.20;;;;;;;22.57;70.70;99310.30;2267741;77;21047;-59
2022/08/31 13:07:11;;;;;;;3.42;0.88;;;;;;;22.66;68.49;99309.36;2268952;77;21533;-58
2022/08/31 13:10:13;;;;;;;2.10;0.80;;;;;;;22.76;67.11;99314.59;2256510;77;21162;-58
2022/08/31 13:13:14;;;;;;;5.08;1.00;;;;;;;22.88;67.11;99307.11;2231678;78;21541;-59
2022/08/31 13:16:16;;;;;;;4.00;1.17;;;;;;;22.95;63.00;99310.81;2189103;79;21047;-57
2022/08/31 13:19:18;;;;;;;3.08;0.82;;;;;;;22.80;62.94;99314.10;2225510;79;21540;-58
2022/08/31 13:22:21;;;;;;;3.55;1.17;;;;;;;22.81;61.78;99313.59;2223002;79;20991;-58
2022/08/31 13:25:34;;;;;;;2.15;0.93;;;;;;;22.90;62.86;99297.08;2221176;79;21135;-58
2022/08/31 13:31:30;;;;;;;5.53;1.10;;;;;;;23.15;65.39;99304.73;2222297;78;20969;-57
2022/08/31 13:34:40;;;;;;;4.85;1.17;;;;;;;23.32;68.29;99290.38;2253251;78;21518;-58
2022/08/31 13:37:36;;;;;;;5.37;1.77;;;;;;;23.24;61.44;99301.56;2219243;79;21501;-57
2022/08/31 13:40:38;;;;;;;;;;;;;;;23.14;59.60;99295.88;2256908;78;21027;-57
2022/08/31 13:43:39;;;;;;;;;;;;;;;22.95;62.77;99288.91;2256535;78;20094;-58
2022/08/31 13:46:42;;;;;;;5.70;1.20;;;;;;;22.84;63.14;99295.89;2253428;78;20412;-57
2022/08/31 13:49:44;;;;;;;3.42;1.00;;;;;;;22.83;65.39;99296.39;2255210;78;21665;-57
2022/08/31 13:52:46;;;;;;;3.67;1.00;;;;;;;22.92;67.71;99297.27;2252977;78;21063;-57
2022/08/31 13:55:48;;;;;;;4.67;1.37;;;;;;;23.24;68.02;99290.87;2255209;78;21588;-57
2022/08/31 13:58:49;;;;;;;5.97;1.17;;;;;;;23.63;67.65;99282.20;2252567;79;21165;-57
2022/08/31 14:01:51;;;;;;;5.35;1.32;;;;;;;23.97;70.04;99286.08;2251768;78;21042;-57
2022/08/31 14:07:56;;;;;;;3.92;1.15;;;;;;;23.98;69.42;99301.67;2220755;78;21051;-58
2022/08/31 14:10:57;;;;;;;;;;;;;;;24.05;71.44;99298.66;2256334;78;21123;-58
2022/08/31 14:14:04;;;;;;;5.03;1.25;;;;;;;23.96;69.86;99306.34;2252418;78;20125;-58
2022/08/31 14:17:02;;;;;;;4.10;1.15;;;;;;;23.66;70.56;99300.13;2232554;78;20981;-58
2022/08/31 14:20:04;;;;;;;;;;;;;;;23.41;67.23;99317.99;2253616;78;21039;-58
2022/08/31 14:23:06;;;;;;;3.83;0.90;;;;;;;23.26;65.71;99301.75;2251084;78;20533;-57
2022/08/31 14:26:11;;;;;;;7.25;1.35;;;;;;;23.43;67.60;99309.31;2251853;78;21126;-57
2022/08/31 14:29:11;;;;;;;4.17;1.42;;;;;;;23.50;68.65;99314.34;2256975;78;20964;-57